Time;durP1;ratioP1;P1;durP2;ratioP2;P2;SDS_P1;SDS_P2;PMS_P1;PMS_P2;Temp;Humidity;BMP_temperature;BMP_pressure;BME280_temperature;BME280_humidity;BME280_pressure;Samples;Min_cycle;Max_cycle;Signal;HPM_P1;HPM_P2
2021/05/17 00:01:57;;;;;;;10.35;6.93;;;18.80;75.20;;;;;;5083883;28;20051;-66
2021/05/17 00:04:34;;;;;;;7.53;4.78;;;18.70;75.20;;;;;;5094109;28;20026;-66
2021/05/17 00:07:04;;;;;;;6.22;4.28;;;18.70;74.10;;;;;;5094182;28;20024;-66
2021/05/17 00:09:30;;;;;;;9.65;4.93;;;18.70;74.10;;;;;;5094245;28;20027;-66
2021/05/17 00:11:57;;;;;;;5.45;4.18;;;18.60;73.90;;;;;;5093351;28;20107;-66
2021/05/17 00:14:24;;;;;;;5.05;4.20;;;18.60;74.20;;;;;;5093772;28;20041;-66
2021/05/17 00:16:51;;;;;;;5.88;3.83;;;18.60;74.20;;;;;;5093868;28;20043;-66
2021/05/17 00:19:17;;;;;;;7.32;4.80;;;18.50;74.50;;;;;;5093767;28;20028;-66
2021/05/17 00:21:43;;;;;;;6.55;4.25;;;18.50;74.80;;;;;;5093462;28;20386;-66
2021/05/17 00:24:11;;;;;;;7.55;5.07;;;18.50;75.40;;;;;;5093781;28;20027;-66
2021/05/17 00:26:37;;;;;;;5.38;4.03;;;18.50;75.40;;;;;;5093699;28;20028;-66
2021/05/17 00:29:03;;;;;;;5.65;3.85;;;18.50;76.20;;;;;;5092958;28;20048;-66
2021/05/17 00:31:29;;;;;;;5.20;3.60;;;18.50;75.70;;;;;;5093575;28;20035;-66
2021/05/17 00:33:55;;;;;;;5.90;3.90;;;18.50;75.60;;;;;;5093816;28;20016;-66
2021/05/17 00:36:22;;;;;;;6.40;4.55;;;18.50;76.00;;;;;;5093076;28;20062;-66
2021/05/17 00:38:48;;;;;;;6.63;3.92;;;18.50;76.10;;;;;;5093640;28;20027;-66
2021/05/17 00:41:15;;;;;;;7.63;4.50;;;18.50;76.30;;;;;;5093322;28;20035;-66
2021/05/17 00:43:41;;;;;;;5.88;4.25;;;18.50;76.30;;;;;;5093578;28;20396;-66
2021/05/17 00:46:10;;;;;;;5.00;4.05;;;18.40;76.50;;;;;;5093401;28;20028;-66
2021/05/17 00:48:37;;;;;;;4.70;3.88;;;18.40;76.70;;;;;;5093528;28;20020;-66
2021/05/17 00:51:04;;;;;;;7.13;4.13;;;18.40;76.80;;;;;;5093149;28;20483;-66
2021/05/17 00:53:31;;;;;;;6.80;4.25;;;18.40;77.00;;;;;;5093339;28;20024;-66
2021/05/17 00:55:57;;;;;;;5.00;3.80;;;18.40;77.30;;;;;;5093568;28;20102;-66
2021/05/17 00:58:23;;;;;;;4.18;3.53;;;18.40;77.30;;;;;;5074794;28;20441;-66
2021/05/17 01:00:49;;;;;;;4.10;3.58;;;18.40;77.30;;;;;;5082491;28;20032;-66
2021/05/17 01:03:14;;;;;;;3.17;2.88;;;18.40;77.70;;;;;;5093391;28;20032;-66
2021/05/17 01:05:41;;;;;;;4.38;3.40;;;18.30;78.10;;;;;;5093365;28;20383;-66
2021/05/17 01:08:11;;;;;;;6.43;3.83;;;18.30;78.20;;;;;;5093240;28;20067;-66
2021/05/17 01:10:44;;;;;;;4.60;3.53;;;18.30;78.40;;;;;;5093013;28;20410;-66
2021/05/17 01:13:10;;;;;;;5.10;3.08;;;18.30;78.20;;;;;;5093516;28;20016;-66
2021/05/17 01:15:38;;;;;;;5.15;3.33;;;18.30;78.20;;;;;;5093277;28;20024;-66
2021/05/17 01:18:04;;;;;;;4.90;3.25;;;18.20;78.10;;;;;;5093315;28;20032;-66
2021/05/17 01:20:33;;;;;;;3.70;2.95;;;18.10;78.30;;;;;;5086571;28;20033;-66
2021/05/17 01:25:52;;;;;;;6.25;3.80;;;18.10;79.00;;;;;;5093151;28;20439;-66
2021/05/17 01:28:22;;;;;;;4.67;4.10;;;18.10;79.60;;;;;;5092947;28;20073;-66
2021/05/17 01:30:49;;;;;;;4.57;3.90;;;18.10;79.70;;;;;;5092894;28;20025;-66
2021/05/17 01:33:15;;;;;;;4.82;3.65;;;18.00;79.60;;;;;;5093230;28;20063;-66
2021/05/17 01:35:41;;;;;;;6.05;4.20;;;18.00;79.70;;;;;;5074980;28;20056;-66
2021/05/17 01:38:08;;;;;;;5.85;4.32;;;18.00;80.00;;;;;;5093062;28;20020;-66
2021/05/17 01:40:35;;;;;;;8.43;4.55;;;18.00;80.30;;;;;;5092947;28;20040;-66
2021/05/17 01:43:03;;;;;;;8.77;4.32;;;18.00;80.30;;;;;;5092954;28;20053;-66
2021/05/17 01:45:30;;;;;;;9.20;4.65;;;18.00;80.30;;;;;;5072808;28;20035;-66
2021/05/17 01:47:58;;;;;;;5.75;4.45;;;18.00;80.30;;;;;;5088581;28;20027;-66
2021/05/17 01:50:24;;;;;;;5.65;3.95;;;18.00;80.60;;;;;;5095728;28;20032;-66
2021/05/17 01:52:51;;;;;;;8.13;3.80;;;18.00;80.50;;;;;;5096907;28;20024;-66
2021/05/17 01:55:17;;;;;;;4.75;3.50;;;18.00;80.20;;;;;;5096913;28;20031;-66
2021/05/17 01:57:43;;;;;;;5.10;3.92;;;17.90;80.20;;;;;;5083960;28;20044;-66
2021/05/17 02:00:13;;;;;;;4.97;3.58;;;17.80;80.90;;;;;;5078970;28;20071;-66
2021/05/17 02:02:39;;;;;;;5.00;3.40;;;17.60;81.80;;;;;;5076416;28;20056;-66
2021/05/17 02:05:06;;;;;;;4.38;3.20;;;17.50;82.30;;;;;;5078755;28;20514;-66
2021/05/17 02:07:32;;;;;;;5.68;3.35;;;17.40;82.30;;;;;;5096894;28;20062;-66
2021/05/17 02:10:01;;;;;;;4.28;3.03;;;17.40;82.60;;;;;;5096610;28;20031;-66
2021/05/17 02:12:29;;;;;;;4.72;3.70;;;17.30;82.70;;;;;;5073002;28;20032;-66
2021/05/17 02:14:55;;;;;;;5.03;3.17;;;17.20;82.70;;;;;;5076596;28;20107;-66
2021/05/17 02:17:24;;;;;;;3.50;3.03;;;17.20;82.40;;;;;;5079948;28;20475;-66
2021/05/17 02:19:50;;;;;;;3.67;3.25;;;17.20;82.40;;;;;;5096171;28;20017;-66
2021/05/17 02:22:20;;;;;;;4.15;2.90;;;17.10;82.50;;;;;;5096676;28;20039;-66
2021/05/17 02:24:47;;;;;;;4.00;3.28;;;17.10;82.50;;;;;;5097153;28;20379;-66
2021/05/17 02:27:14;;;;;;;4.38;3.17;;;17.10;82.50;;;;;;5097172;28;20416;-66
2021/05/17 02:29:40;;;;;;;5.82;3.78;;;17.00;82.50;;;;;;5095543;28;20020;-66
2021/05/17 02:32:06;;;;;;;4.53;3.55;;;17.00;82.90;;;;;;5096327;28;20034;-66
2021/05/17 02:34:32;;;;;;;8.05;3.53;;;17.00;82.90;;;;;;5096328;28;20026;-66
2021/05/17 02:36:58;;;;;;;3.70;3.03;;;16.90;82.90;;;;;;5096254;28;20405;-66
2021/05/17 02:39:24;;;;;;;3.50;3.17;;;16.90;83.10;;;;;;5096165;28;20094;-66
2021/05/17 02:41:54;;;;;;;3.88;3.35;;;16.90;83.20;;;;;;5096232;28;20089;-66
2021/05/17 02:44:20;;;;;;;6.82;3.50;;;16.90;83.10;;;;;;5096423;28;20024;-66
2021/05/17 02:46:45;;;;;;;5.40;3.60;;;16.90;83.30;;;;;;5096298;28;20352;-66
2021/05/17 02:49:11;;;;;;;4.10;3.55;;;16.90;83.40;;;;;;5095408;28;20023;-66
2021/05/17 02:51:38;;;;;;;4.82;3.70;;;16.90;83.40;;;;;;5095795;28;20048;-66
2021/05/17 02:54:22;;;;;;;4.43;3.78;;;16.90;83.60;;;;;;5096492;28;20080;-66
2021/05/17 02:57:07;;;;;;;5.13;3.53;;;16.90;83.80;;;;;;5095698;28;20027;-66
2021/05/17 03:00:09;;;;;;;4.30;3.90;;;17.00;83.90;;;;;;5076875;28;20031;-66
2021/05/17 03:02:51;;;;;;;;;;;17.00;83.90;;;;;;5088846;28;20148;-66
2021/05/17 03:05:17;;;;;;;5.88;4.18;;;16.90;83.70;;;;;;5075323;28;19958;-66
2021/05/17 03:07:47;;;;;;;5.60;3.95;;;16.90;83.80;;;;;;5089460;28;20078;-66
2021/05/17 03:10:13;;;;;;;8.00;4.60;;;16.90;84.10;;;;;;5095043;28;20103;-66
2021/05/17 03:12:41;;;;;;;6.95;4.40;;;17.00;84.30;;;;;;5095429;28;20067;-66
2021/05/17 03:15:08;;;;;;;5.68;3.85;;;17.00;84.60;;;;;;5095387;28;20020;-66
2021/05/17 03:17:36;;;;;;;7.28;4.10;;;17.00;84.50;;;;;;5095371;28;20028;-66
2021/05/17 03:20:03;;;;;;;7.80;4.05;;;17.00;84.60;;;;;;5094933;28;20142;-66
2021/05/17 03:22:31;;;;;;;4.43;3.83;;;17.00;84.90;;;;;;5094992;28;20036;-66
2021/05/17 03:24:58;;;;;;;5.47;4.28;;;17.00;84.80;;;;;;5077047;28;20044;-66
2021/05/17 03:27:27;;;;;;;4.68;3.58;;;17.00;84.90;;;;;;5094905;28;20024;-66
2021/05/17 03:29:54;;;;;;;5.95;3.65;;;17.10;84.90;;;;;;5094978;28;20107;-66
2021/05/17 03:32:22;;;;;;;5.55;3.83;;;17.10;84.90;;;;;;5094904;28;20024;-66
2021/05/17 03:34:47;;;;;;;4.80;3.78;;;17.10;85.00;;;;;;5095560;28;20409;-66
2021/05/17 03:37:13;;;;;;;4.68;3.90;;;17.20;85.10;;;;;;5095136;28;20089;-66
2021/05/17 03:39:39;;;;;;;5.28;3.60;;;17.10;84.80;;;;;;5094728;28;20490;-66
2021/05/17 03:42:05;;;;;;;5.15;3.70;;;17.20;84.80;;;;;;5095257;28;20035;-66
2021/05/17 03:44:31;;;;;;;6.93;3.88;;;17.20;84.70;;;;;;5094966;28;20032;-66
2021/05/17 03:46:56;;;;;;;6.72;3.53;;;17.20;84.70;;;;;;5094919;28;20077;-66
2021/05/17 03:49:22;;;;;;;4.43;4.00;;;17.20;84.70;;;;;;5092842;28;20016;-66
2021/05/17 03:51:48;;;;;;;4.25;3.80;;;17.20;84.50;;;;;;5094660;28;20556;-66
2021/05/17 03:54:14;;;;;;;5.10;3.80;;;17.20;84.40;;;;;;5094664;28;20081;-66
2021/05/17 03:56:39;;;;;;;5.43;3.83;;;17.20;84.50;;;;;;5094796;28;20028;-66
2021/05/17 03:59:05;;;;;;;5.97;3.70;;;17.20;84.70;;;;;;5094704;28;20421;-66
2021/05/17 04:01:31;;;;;;;6.28;3.75;;;17.30;84.80;;;;;;5094831;28;20024;-66
2021/05/17 04:03:57;;;;;;;5.22;3.70;;;17.30;85.00;;;;;;5094678;28;20024;-66
2021/05/17 04:06:28;;;;;;;5.82;4.35;;;17.30;84.80;;;;;;5093880;28;20655;-66
2021/05/17 04:14:21;;;;;;;3.38;3.08;;;17.30;84.20;;;;;;5095012;28;20027;-66
2021/05/17 04:16:47;;;;;;;4.63;3.22;;;17.30;84.10;;;;;;5094031;28;20475;-66
2021/05/17 04:19:13;;;;;;;4.72;3.50;;;17.30;84.40;;;;;;5094762;28;20032;-66
2021/05/17 04:21:40;;;;;;;4.22;3.20;;;17.30;84.70;;;;;;5094688;28;20024;-66
2021/05/17 04:24:06;;;;;;;3.83;2.95;;;17.40;84.70;;;;;;5094436;28;20032;-66
2021/05/17 04:26:32;;;;;;;3.67;3.03;;;17.40;84.50;;;;;;5093976;28;20395;-66
2021/05/17 04:28:58;;;;;;;5.53;3.67;;;17.40;84.00;;;;;;5094393;28;20024;-66
2021/05/17 04:31:23;;;;;;;2.97;2.67;;;17.40;84.00;;;;;;5094484;28;20024;-66
2021/05/17 04:33:49;;;;;;;4.18;3.30;;;17.40;84.10;;;;;;5094410;28;20020;-66
2021/05/17 04:36:17;;;;;;;4.25;3.38;;;17.40;84.10;;;;;;5093991;28;20022;-66
2021/05/17 04:38:42;;;;;;;3.25;2.92;;;17.50;84.30;;;;;;5094272;28;20398;-66
2021/05/17 04:41:08;;;;;;;3.15;2.85;;;17.50;84.10;;;;;;5094231;28;20107;-66
2021/05/17 04:43:34;;;;;;;4.13;3.28;;;17.50;84.00;;;;;;5094244;28;20024;-66
2021/05/17 04:45:59;;;;;;;4.32;3.35;;;17.60;84.20;;;;;;5093080;28;20069;-65
2021/05/17 04:48:25;;;;;;;3.80;3.00;;;17.60;84.30;;;;;;5090291;28;20392;-65
2021/05/17 04:50:51;;;;;;;3.78;3.05;;;17.60;84.40;;;;;;5080495;28;20051;-65
2021/05/17 04:53:16;;;;;;;3.30;2.95;;;17.70;84.30;;;;;;5093999;28;20028;-65
2021/05/17 04:55:42;;;;;;;3.28;2.97;;;17.70;84.60;;;;;;5093322;28;20024;-65
2021/05/17 04:58:10;;;;;;;4.07;3.40;;;17.80;84.60;;;;;;5093637;28;20024;-65
2021/05/17 05:00:36;;;;;;;3.63;3.30;;;17.80;84.70;;;;;;5093343;28;20032;-65
2021/05/17 05:03:02;;;;;;;4.05;3.38;;;17.80;84.80;;;;;;5094019;28;20103;-65
2021/05/17 05:05:27;;;;;;;3.65;3.20;;;17.80;85.00;;;;;;5093533;28;20387;-65
2021/05/17 05:07:53;;;;;;;3.95;3.17;;;17.90;84.80;;;;;;5093307;28;20110;-65
2021/05/17 05:10:19;;;;;;;3.80;2.88;;;18.00;84.50;;;;;;5088833;28;20047;-65
2021/05/17 05:12:45;;;;;;;3.53;3.17;;;18.10;84.80;;;;;;5089119;28;20036;-65
2021/05/17 05:15:11;;;;;;;3.17;2.80;;;18.20;84.90;;;;;;5091652;28;20051;-66
2021/05/17 05:17:36;;;;;;;2.90;2.70;;;18.40;84.40;;;;;;5088230;28;20085;-55
2021/05/17 05:20:03;;;;;;;3.50;2.80;;;18.50;83.80;;;;;;5092185;28;20024;-57
2021/05/17 05:22:29;;;;;;;5.47;3.10;;;18.60;83.20;;;;;;5092002;28;20395;-56
2021/05/17 05:24:56;;;;;;;4.15;3.13;;;18.80;82.80;;;;;;5087318;28;20020;-56
2021/05/17 05:27:39;;;;;;;4.35;2.95;;;18.90;82.60;;;;;;5093870;28;20632;-57
2021/05/17 05:30:25;;;;;;;4.00;2.72;;;18.90;82.20;;;;;;5091897;28;20106;-55
2021/05/17 05:33:07;;;;;;;4.00;3.20;;;19.00;81.90;;;;;;5091249;28;20020;-57
2021/05/17 05:35:33;;;;;;;4.18;2.67;;;19.20;82.00;;;;;;5091201;28;20032;-56
2021/05/17 05:37:59;;;;;;;3.05;2.75;;;19.30;81.70;;;;;;5091129;28;20459;-56
2021/05/17 05:40:25;;;;;;;3.40;3.10;;;19.40;81.30;;;;;;5091389;28;20031;-57
2021/05/17 05:42:50;;;;;;;4.30;3.08;;;19.50;80.80;;;;;;5093367;28;20028;-58
2021/05/17 05:45:16;;;;;;;4.82;2.90;;;19.60;80.40;;;;;;5095010;28;20055;-56
2021/05/17 05:47:41;;;;;;;2.92;2.58;;;19.70;80.10;;;;;;5095235;28;20031;-55
2021/05/17 05:50:08;;;;;;;3.78;3.05;;;19.70;79.80;;;;;;5093279;28;20050;-57
2021/05/17 05:52:33;;;;;;;2.97;2.63;;;19.80;79.70;;;;;;5088064;28;20055;-57
2021/05/17 05:55:04;;;;;;;4.05;3.15;;;19.80;79.50;;;;;;5090114;28;20055;-57
2021/05/17 05:57:37;;;;;;;3.70;3.40;;;19.80;79.20;;;;;;5092322;28;20032;-58
2021/05/17 06:00:06;;;;;;;3.53;2.83;;;19.80;79.00;;;;;;5082061;28;20036;-57
2021/05/17 06:02:32;;;;;;;3.00;2.70;;;19.90;78.50;;;;;;5088570;28;20043;-58
2021/05/17 06:04:58;;;;;;;2.65;2.45;;;19.90;78.30;;;;;;5091628;28;20028;-58
2021/05/17 06:07:24;;;;;;;3.47;2.80;;;19.90;78.30;;;;;;5090436;28;20039;-56
2021/05/17 06:09:49;;;;;;;3.40;3.10;;;19.90;78.20;;;;;;5091922;28;20482;-55
2021/05/17 06:12:16;;;;;;;3.10;2.80;;;19.90;78.50;;;;;;5086855;28;20080;-55
2021/05/17 06:14:42;;;;;;;3.10;2.90;;;19.90;77.50;;;;;;5079291;28;20024;-53
2021/05/17 06:17:07;;;;;;;3.53;3.17;;;19.90;77.70;;;;;;5087843;28;20039;-56
2021/05/17 06:19:33;;;;;;;3.40;3.10;;;19.80;77.70;;;;;;5083905;28;20036;-58
2021/05/17 06:21:59;;;;;;;4.72;3.08;;;19.80;78.20;;;;;;5064253;28;20074;-58
2021/05/17 06:24:25;;;;;;;4.00;3.10;;;19.80;78.50;;;;;;5069647;28;20032;-59
2021/05/17 06:26:51;;;;;;;3.38;3.05;;;19.90;78.50;;;;;;5087918;28;20024;-59
2021/05/17 06:29:17;;;;;;;4.38;3.42;;;20.00;78.40;;;;;;5085916;28;20020;-58
2021/05/17 06:31:46;;;;;;;4.50;3.30;;;20.00;78.10;;;;;;5087857;28;20036;-55
2021/05/17 06:34:12;;;;;;;4.47;3.47;;;20.10;78.20;;;;;;5089461;28;20032;-58
2021/05/17 06:36:38;;;;;;;7.53;3.60;;;20.10;78.20;;;;;;5092642;28;20035;-58
2021/05/17 06:39:07;;;;;;;4.00;3.38;;;20.10;78.20;;;;;;5089584;28;20035;-57
2021/05/17 06:41:33;;;;;;;4.40;3.60;;;20.20;78.90;;;;;;5089346;28;20031;-59
2021/05/17 06:43:59;;;;;;;5.10;3.28;;;20.20;78.80;;;;;;5085902;28;20480;-58
2021/05/17 06:46:25;;;;;;;4.57;3.20;;;20.40;78.50;;;;;;5085005;28;20037;-58
2021/05/17 06:48:51;;;;;;;5.07;3.25;;;20.50;79.00;;;;;;5088045;28;20024;-59
2021/05/17 06:51:18;;;;;;;5.03;3.47;;;20.60;78.60;;;;;;5082414;28;20032;-55
2021/05/17 06:53:45;;;;;;;3.90;3.35;;;20.70;78.30;;;;;;5082238;28;20028;-56
2021/05/17 06:56:19;;;;;;;3.60;3.30;;;20.80;78.00;;;;;;5085363;28;20016;-59
2021/05/17 06:58:56;;;;;;;4.20;3.30;;;20.90;77.70;;;;;;5084094;28;20410;-57
2021/05/17 07:01:24;;;;;;;3.00;2.70;;;21.00;77.60;;;;;;5084223;28;20428;-56
2021/05/17 07:03:50;;;;;;;3.92;3.30;;;21.10;77.50;;;;;;5081405;28;20032;-51
2021/05/17 07:06:31;;;;;;;4.47;3.40;;;21.10;76.90;;;;;;5082455;28;20039;-57
2021/05/17 07:14:28;;;;;;;4.88;3.90;;;21.20;75.90;;;;;;5081372;28;20097;-57
2021/05/17 07:16:54;;;;;;;4.70;3.90;;;21.10;76.00;;;;;;5083738;28;20544;-56
2021/05/17 07:19:19;;;;;;;5.60;4.22;;;21.00;76.10;;;;;;5081855;28;20027;-55
2021/05/17 07:24:31;;;;;;;4.03;3.47;;;20.90;76.20;;;;;;5083044;28;20035;-52
2021/05/17 07:26:57;;;;;;;5.15;3.67;;;20.80;76.50;;;;;;5076614;28;20045;-53
2021/05/17 07:29:23;;;;;;;5.75;4.30;;;20.80;76.40;;;;;;5073052;28;20028;-58
2021/05/17 07:31:49;;;;;;;4.95;4.20;;;20.70;76.40;;;;;;5074864;28;20139;-58
2021/05/17 07:34:15;;;;;;;5.35;4.05;;;20.60;76.60;;;;;;5080352;28;20103;-57
2021/05/17 07:36:41;;;;;;;6.38;4.32;;;20.50;76.70;;;;;;5078133;28;20041;-59
2021/05/17 07:39:08;;;;;;;5.20;4.22;;;20.50;76.90;;;;;;5080810;28;20039;-56
2021/05/17 07:41:34;;;;;;;8.38;4.85;;;20.40;77.10;;;;;;5081260;28;20463;-57
2021/05/17 07:44:00;;;;;;;7.95;4.60;;;20.30;77.30;;;;;;5077622;28;20101;-57
2021/05/17 07:46:26;;;;;;;8.45;4.82;;;20.20;77.50;;;;;;5077910;28;20051;-64
2021/05/17 07:49:09;;;;;;;5.03;4.03;;;20.10;77.70;;;;;;5084988;28;20028;-63
2021/05/17 07:51:37;;;;;;;6.40;4.88;;;20.00;77.90;;;;;;5071978;28;20047;-62
2021/05/17 07:54:03;;;;;;;6.47;4.82;;;19.90;78.40;;;;;;5079103;28;20027;-63
2021/05/17 07:56:30;;;;;;;7.57;4.07;;;19.90;78.70;;;;;;5079829;28;20480;-63
2021/05/17 07:58:55;;;;;;;6.85;4.55;;;19.80;79.20;;;;;;5083191;28;20459;-62
2021/05/17 08:01:21;;;;;;;5.15;4.38;;;19.70;79.00;;;;;;5073079;28;20034;-62
2021/05/17 08:03:47;;;;;;;5.32;4.30;;;19.70;79.10;;;;;;5080896;28;20027;-62
2021/05/17 08:06:13;;;;;;;5.55;4.07;;;19.60;79.40;;;;;;5076318;28;20132;-63
2021/05/17 08:08:39;;;;;;;9.65;4.50;;;19.50;79.50;;;;;;5071270;28;20498;-62
2021/05/17 08:11:04;;;;;;;6.40;4.85;;;19.40;80.00;;;;;;5074450;28;20483;-62
2021/05/17 08:13:30;;;;;;;6.07;3.85;;;19.30;80.00;;;;;;5054036;28;20723;-63
2021/05/17 08:15:56;;;;;;;5.78;4.30;;;19.20;80.00;;;;;;5077897;28;20059;-63
2021/05/17 08:18:22;;;;;;;7.28;4.10;;;19.10;80.30;;;;;;5079130;28;20054;-63
2021/05/17 08:20:48;;;;;;;5.57;4.22;;;18.90;81.20;;;;;;5078612;28;20032;-62
2021/05/17 08:23:16;;;;;;;5.05;3.80;;;18.60;82.00;;;;;;5074616;28;20036;-63
2021/05/17 08:25:46;;;;;;;5.13;3.45;;;18.40;82.60;;;;;;5078313;28;20027;-63
2021/05/17 08:28:14;;;;;;;4.00;3.60;;;18.30;83.20;;;;;;5077644;28;20047;-62
2021/05/17 08:30:44;;;;;;;4.80;3.60;;;18.10;84.20;;;;;;5079094;28;20074;-63
2021/05/17 08:33:11;;;;;;;4.38;3.58;;;18.00;84.60;;;;;;5073801;28;20021;-63
2021/05/17 08:35:38;;;;;;;4.20;3.80;;;17.90;85.10;;;;;;5071469;28;20122;-63
2021/05/17 08:38:04;;;;;;;5.72;4.13;;;17.90;85.60;;;;;;5072821;28;20576;-63
2021/05/17 08:40:37;;;;;;;5.22;3.95;;;17.90;86.70;;;;;;5076298;28;20915;-63
2021/05/17 08:43:04;;;;;;;4.32;3.88;;;17.90;86.90;;;;;;5075398;28;20020;-64
2021/05/17 08:45:31;;;;;;;5.25;3.85;;;17.90;86.20;;;;;;5069304;28;20032;-64
2021/05/17 08:47:56;;;;;;;6.50;4.50;;;18.00;86.40;;;;;;5071264;28;20066;-63
2021/05/17 08:50:23;;;;;;;5.53;4.13;;;17.90;86.40;;;;;;5075880;28;20156;-63
2021/05/17 08:52:48;;;;;;;4.75;4.20;;;18.00;86.30;;;;;;5069038;28;20020;-64
2021/05/17 08:55:15;;;;;;;5.88;4.90;;;18.10;86.50;;;;;;5068492;28;20029;-64
2021/05/17 08:57:45;;;;;;;4.90;4.22;;;18.10;86.60;;;;;;5070483;28;20021;-62
2021/05/17 09:00:13;;;;;;;8.75;4.78;;;18.20;86.40;;;;;;5071654;28;20118;-62
2021/05/17 09:02:39;;;;;;;6.40;4.78;;;18.30;86.50;;;;;;5072746;28;20024;-63
2021/05/17 09:05:21;;;;;;;5.78;5.15;;;18.30;87.00;;;;;;5058535;28;20036;-65
2021/05/17 09:07:59;;;;;;;5.57;4.90;;;18.50;86.90;;;;;;5069574;28;20036;-63
2021/05/17 09:10:31;;;;;;;5.82;4.97;;;18.60;87.70;;;;;;5080179;28;20020;-64
2021/05/17 09:13:02;;;;;;;6.00;4.97;;;18.80;87.10;;;;;;5072653;28;20036;-63
2021/05/17 09:15:34;;;;;;;8.68;6.30;;;18.90;86.60;;;;;;5070114;28;20158;-63
2021/05/17 09:18:05;;;;;;;6.35;5.70;;;19.00;86.60;;;;;;5075660;28;20559;-64
2021/05/17 09:20:36;;;;;;;7.68;6.65;;;19.10;86.90;;;;;;5074869;28;20028;-62
2021/05/17 09:23:31;;;;;;;8.38;6.28;;;19.20;86.60;;;;;;5075620;28;20024;-61
2021/05/17 09:26:01;;;;;;;8.27;6.75;;;19.30;85.80;;;;;;5066760;28;20081;-63
2021/05/17 09:28:53;;;;;;;6.97;6.25;;;19.40;86.20;;;;;;5063936;28;20695;-62
2021/05/17 09:31:21;;;;;;;7.50;6.47;;;19.60;85.50;;;;;;5068560;28;20028;-60
2021/05/17 09:33:49;;;;;;;7.20;6.50;;;19.70;85.50;;;;;;5069017;28;20450;-63
2021/05/17 09:36:41;;;;;;;8.50;6.63;;;19.80;85.60;;;;;;5070021;28;20024;-63
2021/05/17 09:39:08;;;;;;;;;;;20.00;85.30;;;;;;5066837;28;20028;-64
2021/05/17 09:41:47;;;;;;;6.35;5.65;;;20.10;84.80;;;;;;5077387;28;20011;-63
2021/05/17 09:44:18;;;;;;;7.55;6.00;;;20.20;84.80;;;;;;5058480;28;20040;-63
2021/05/17 09:47:06;;;;;;;9.07;5.97;;;20.30;84.00;;;;;;5058747;28;20039;-62
2021/05/17 09:49:38;;;;;;;6.22;5.00;;;20.40;83.20;;;;;;5070846;28;20032;-63
2021/05/17 09:52:34;;;;;;;7.07;5.75;;;20.50;82.60;;;;;;5069314;28;20048;-64
2021/05/17 09:55:10;;;;;;;6.60;5.80;;;20.60;82.20;;;;;;5065591;28;20036;-65
2021/05/17 09:57:48;;;;;;;8.25;6.10;;;20.60;82.70;;;;;;5068875;28;20085;-66
2021/05/17 10:00:28;;;;;;;6.57;5.63;;;20.70;82.60;;;;;;5068595;28;20028;-64
2021/05/17 10:02:55;;;;;;;7.05;5.13;;;20.80;82.70;;;;;;5073393;28;20039;-63
2021/05/17 10:05:28;;;;;;;5.85;5.15;;;21.00;82.40;;;;;;5067401;28;20067;-63
2021/05/17 10:08:03;;;;;;;5.65;4.80;;;21.10;81.60;;;;;;5070437;28;20036;-63
2021/05/17 10:10:30;;;;;;;7.40;5.70;;;21.10;81.10;;;;;;5077046;28;20120;-63
2021/05/17 10:12:57;;;;;;;6.53;5.82;;;21.20;80.70;;;;;;5085566;28;20077;-62
2021/05/17 10:15:25;;;;;;;7.30;5.43;;;21.20;81.20;;;;;;5078367;28;20028;-63
2021/05/17 10:17:51;;;;;;;6.75;5.03;;;21.20;80.80;;;;;;5078956;28;20032;-63
2021/05/17 10:20:21;;;;;;;6.53;5.55;;;21.30;80.20;;;;;;5071766;28;20046;-64
2021/05/17 10:22:49;;;;;;;6.70;5.60;;;21.30;79.30;;;;;;5078651;28;20027;-63
2021/05/17 10:25:21;;;;;;;6.82;5.93;;;21.30;79.40;;;;;;5075760;28;20047;-63
2021/05/17 10:27:50;;;;;;;7.00;5.97;;;21.30;79.60;;;;;;5080303;28;20035;-64
2021/05/17 10:30:24;;;;;;;6.72;5.47;;;21.30;79.40;;;;;;5076910;28;20020;-64
2021/05/17 10:32:57;;;;;;;7.60;5.35;;;21.30;79.10;;;;;;5077081;28;20068;-63
2021/05/17 10:35:33;;;;;;;7.10;5.78;;;21.30;78.80;;;;;;5076624;28;20020;-64
2021/05/17 10:38:17;;;;;;;6.80;5.72;;;21.20;79.00;;;;;;5074650;28;20032;-64
2021/05/17 10:40:47;;;;;;;6.70;5.65;;;21.10;78.80;;;;;;5072716;28;20044;-64
2021/05/17 10:43:30;;;;;;;6.65;5.95;;;21.10;79.20;;;;;;5074375;28;20028;-64
2021/05/17 10:49:20;;;;;;;5.90;5.30;;;21.00;79.50;;;;;;5080688;28;20039;-64
2021/05/17 10:51:46;;;;;;;6.80;5.75;;;21.00;79.20;;;;;;5075112;28;20042;-63
2021/05/17 10:54:30;;;;;;;7.28;6.45;;;21.00;79.50;;;;;;5077140;28;20066;-63
2021/05/17 10:57:01;;;;;;;6.53;5.93;;;20.90;79.60;;;;;;5075597;28;20039;-63
2021/05/17 11:02:29;;;;;;;7.53;6.57;;;20.80;80.20;;;;;;5075403;28;20398;-63
2021/05/17 11:04:56;;;;;;;7.63;6.22;;;20.80;80.60;;;;;;5075170;28;20060;-63
2021/05/17 11:07:29;;;;;;;7.45;6.63;;;20.80;80.70;;;;;;5077714;28;20050;-62
2021/05/17 11:10:21;;;;;;;7.03;6.22;;;20.80;80.40;;;;;;5071575;28;20027;-63
2021/05/17 11:13:10;;;;;;;7.28;6.57;;;20.80;80.60;;;;;;5061120;28;20394;-64
2021/05/17 11:15:42;;;;;;;7.35;6.65;;;20.80;80.50;;;;;;5072393;28;20150;-64
2021/05/17 11:18:08;;;;;;;7.40;6.40;;;20.80;80.80;;;;;;5073560;28;20498;-64
2021/05/17 11:20:40;;;;;;;6.55;5.95;;;20.80;80.90;;;;;;5068765;28;20029;-64
2021/05/17 11:23:27;;;;;;;9.65;7.03;;;20.80;81.00;;;;;;5077014;28;20786;-64
2021/05/17 11:28:34;;;;;;;7.60;6.70;;;20.90;81.30;;;;;;5078089;28;20542;-64
2021/05/17 11:31:03;;;;;;;6.82;6.10;;;20.90;80.80;;;;;;5070644;28;20020;-66
2021/05/17 11:33:47;;;;;;;7.43;6.63;;;20.90;80.50;;;;;;5071900;28;20024;-64
2021/05/17 11:36:13;;;;;;;7.43;6.72;;;21.00;80.30;;;;;;5068690;28;20032;-64
2021/05/17 11:39:07;;;;;;;8.95;7.30;;;21.00;80.50;;;;;;5079054;28;20036;-64
2021/05/17 11:41:38;;;;;;;8.05;6.88;;;21.00;80.10;;;;;;5068561;28;20057;-64
2021/05/17 11:44:05;;;;;;;7.90;7.07;;;21.00;80.20;;;;;;5076189;28;20032;-64
2021/05/17 11:46:47;;;;;;;7.55;6.85;;;21.00;80.20;;;;;;5076274;28;20116;-65
2021/05/17 11:49:19;;;;;;;7.05;6.35;;;21.10;80.50;;;;;;5071349;28;20177;-63
2021/05/17 11:51:50;;;;;;;7.75;6.95;;;21.10;80.30;;;;;;5058459;28;20052;-63
2021/05/17 11:54:18;;;;;;;7.93;7.22;;;21.20;80.40;;;;;;5074286;28;20044;-63
2021/05/17 11:56:46;;;;;;;7.75;7.05;;;21.20;79.80;;;;;;5076174;28;20455;-63
2021/05/17 11:59:13;;;;;;;7.32;6.63;;;21.20;79.30;;;;;;5074622;28;20036;-64
2021/05/17 12:01:41;;;;;;;7.72;7.03;;;21.20;79.10;;;;;;5074581;28;20020;-63
2021/05/17 12:04:16;;;;;;;9.02;7.05;;;21.30;79.20;;;;;;5079034;28;20034;-63
2021/05/17 12:06:44;;;;;;;8.02;7.22;;;21.30;78.90;;;;;;5067345;28;20601;-63
2021/05/17 12:09:10;;;;;;;8.23;7.40;;;21.20;79.10;;;;;;5076438;28;20135;-63
2021/05/17 12:11:50;;;;;;;8.60;7.80;;;21.20;79.00;;;;;;5076484;28;20101;-63
2021/05/17 12:14:15;;;;;;;7.53;6.82;;;21.20;79.30;;;;;;5078489;28;21289;-64
2021/05/17 12:16:41;;;;;;;9.57;7.57;;;21.10;79.30;;;;;;5078259;28;20036;-64
2021/05/17 12:19:08;;;;;;;8.23;7.35;;;21.10;79.40;;;;;;5078360;28;20551;-63
2021/05/17 12:21:34;;;;;;;8.52;6.72;;;21.10;79.30;;;;;;5078899;28;20116;-63
2021/05/17 12:24:00;;;;;;;9.32;8.15;;;21.20;79.20;;;;;;5076016;28;20411;-63
2021/05/17 12:26:26;;;;;;;7.90;7.07;;;21.20;79.40;;;;;;5072890;28;20020;-63
2021/05/17 12:29:03;;;;;;;8.55;7.55;;;21.20;79.50;;;;;;5071031;28;20486;-64
2021/05/17 12:31:28;;;;;;;9.23;8.35;;;21.20;79.20;;;;;;5071805;28;20538;-65
2021/05/17 12:33:54;;;;;;;8.77;7.93;;;21.20;79.70;;;;;;5076762;28;20028;-66
2021/05/17 12:36:20;;;;;;;9.77;8.77;;;21.20;79.30;;;;;;5081567;28;20024;-66
2021/05/17 12:38:46;;;;;;;8.45;7.65;;;21.20;79.00;;;;;;5074750;28;20079;-64
2021/05/17 12:41:35;;;;;;;8.90;8.00;;;21.20;79.20;;;;;;5071096;28;20032;-66
2021/05/17 12:44:02;;;;;;;9.55;8.30;;;21.20;79.20;;;;;;5070049;28;20126;-64
2021/05/17 12:46:29;;;;;;;8.68;7.78;;;21.20;79.20;;;;;;5074354;28;20040;-65
2021/05/17 12:48:57;;;;;;;8.90;8.10;;;21.20;79.10;;;;;;5069996;28;20029;-64
2021/05/17 12:51:28;;;;;;;11.40;7.90;;;21.20;79.20;;;;;;5077276;28;20047;-64
2021/05/17 12:54:14;;;;;;;9.73;8.45;;;21.20;79.20;;;;;;5080902;28;20016;-66
2021/05/17 12:56:40;;;;;;;8.88;8.07;;;21.30;79.40;;;;;;5073337;28;20059;-64
2021/05/17 12:59:13;;;;;;;9.18;8.27;;;21.30;79.50;;;;;;5072076;28;20495;-65
2021/05/17 13:01:39;;;;;;;8.90;8.00;;;21.30;79.50;;;;;;5078829;28;20024;-63
2021/05/17 13:04:07;;;;;;;8.57;7.78;;;21.30;79.80;;;;;;5079223;28;21378;-65
2021/05/17 13:06:33;;;;;;;11.75;8.55;;;21.40;79.30;;;;;;5079468;28;20165;-63
2021/05/17 13:09:06;;;;;;;9.35;8.50;;;21.40;79.00;;;;;;5078202;28;20075;-64
2021/05/17 13:11:38;;;;;;;9.30;8.02;;;21.50;78.80;;;;;;5077437;28;20051;-66
2021/05/17 13:14:05;;;;;;;9.05;8.15;;;21.50;78.50;;;;;;5070621;28;23612;-64
2021/05/17 13:16:47;;;;;;;10.13;8.65;;;21.50;78.60;;;;;;5074696;28;20058;-62
2021/05/17 13:31:00;;;;;;;7.82;7.00;;;21.40;77.60;;;;;;5065579;28;20028;-64
2021/05/17 13:33:28;;;;;;;7.60;6.85;;;21.40;78.10;;;;;;5076264;28;20794;-65
2021/05/17 13:35:59;;;;;;;7.68;6.65;;;21.40;77.80;;;;;;5076533;28;20094;-65